sensor_id;sensor_type;location;lat;lon;timestamp;pressure;altitude;pressure_sealevel;temperature;humidity
11415;BME280;5763;42.714;23.244;2023-02-13T00:01:23;96120.13;;;1.25;70.53
11415;BME280;5763;42.714;23.244;2023-02-13T00:03:50;96308.28;;;2.46;70.57
11415;BME280;5763;42.714;23.244;2023-02-13T00:06:17;96147.78;;;1.22;70.63
11415;BME280;5763;42.714;23.244;2023-02-13T00:08:44;96293.44;;;2.36;70.62
11415;BME280;5763;42.714;23.244;2023-02-13T00:11:12;96220.78;;;2.09;70.51
11415;BME280;5763;42.714;23.244;2023-02-13T00:13:40;96279.28;;;2.43;68.96
11415;BME280;5763;42.714;23.244;2023-02-13T00:16:09;96297.03;;;2.44;68.65
11415;BME280;5763;42.714;23.244;2023-02-13T00:18:37;96287.44;;;2.46;69.18
11415;BME280;5763;42.714;23.244;2023-02-13T00:21:06;96126.34;;;1.29;69.23
11415;BME280;5763;42.714;23.244;2023-02-13T00:23:34;96208.25;;;1.78;70.02
11415;BME280;5763;42.714;23.244;2023-02-13T00:26:05;96107.94;;;1.31;70.17
11415;BME280;5763;42.714;23.244;2023-02-13T00:28:32;96289.38;;;2.68;70.34
11415;BME280;5763;42.714;23.244;2023-02-13T00:31:04;96239.25;;;2.26;69.54
11415;BME280;5763;42.714;23.244;2023-02-13T00:33:33;96183.22;;;2.00;69.03
11415;BME280;5763;42.714;23.244;2023-02-13T00:36:06;96229.84;;;2.20;68.90
11415;BME280;5763;42.714;23.244;2023-02-13T00:38:33;96167.13;;;1.85;68.84
11415;BME280;5763;42.714;23.244;2023-02-13T00:41:00;96186.84;;;1.89;68.49
11415;BME280;5763;42.714;23.244;2023-02-13T00:43:27;96106.34;;;1.49;66.46
11415;BME280;5763;42.714;23.244;2023-02-13T00:45:54;96104.16;;;1.36;66.02
11415;BME280;5763;42.714;23.244;2023-02-13T00:48:23;96333.06;;;2.51;66.62
11415;BME280;5763;42.714;23.244;2023-02-13T00:50:51;96307.09;;;2.43;67.18
11415;BME280;5763;42.714;23.244;2023-02-13T00:53:19;96238.06;;;2.04;67.60
11415;BME280;5763;42.714;23.244;2023-02-13T00:55:46;96284.22;;;2.18;68.34
11415;BME280;5763;42.714;23.244;2023-02-13T00:58:14;96262.19;;;2.16;67.92
11415;BME280;5763;42.714;23.244;2023-02-13T01:00:41;96279.28;;;2.24;67.73
11415;BME280;5763;42.714;23.244;2023-02-13T01:03:08;96211.81;;;1.82;67.75
11415;BME280;5763;42.714;23.244;2023-02-13T01:05:35;96327.53;;;2.44;66.78
11415;BME280;5763;42.714;23.244;2023-02-13T01:08:04;96241.91;;;2.03;66.64
11415;BME280;5763;42.714;23.244;2023-02-13T01:10:31;96307.63;;;2.52;66.14
11415;BME280;5763;42.714;23.244;2023-02-13T01:12:58;96190.69;;;1.88;66.03
11415;BME280;5763;42.714;23.244;2023-02-13T01:15:25;96188.72;;;1.85;66.23
11415;BME280;5763;42.714;23.244;2023-02-13T01:17:52;96117.63;;;1.36;67.22
11415;BME280;5763;42.714;23.244;2023-02-13T01:20:22;96231.22;;;2.10;67.50
11415;BME280;5763;42.714;23.244;2023-02-13T01:22:50;96254.59;;;2.22;67.64
11415;BME280;5763;42.714;23.244;2023-02-13T01:25:18;96144.81;;;1.27;67.70
11415;BME280;5763;42.714;23.244;2023-02-13T01:27:46;96281.25;;;2.23;68.12
11415;BME280;5763;42.714;23.244;2023-02-13T01:30:15;96315.41;;;2.57;68.80
11415;BME280;5763;42.714;23.244;2023-02-13T01:32:43;96143.41;;;1.33;69.17
11415;BME280;5763;42.714;23.244;2023-02-13T01:35:11;96105.00;;;1.40;69.20
11415;BME280;5763;42.714;23.244;2023-02-13T01:37:39;96256.94;;;2.23;69.09
11415;BME280;5763;42.714;23.244;2023-02-13T01:40:10;96314.53;;;2.72;69.01
11415;BME280;5763;42.714;23.244;2023-02-13T01:42:39;96206.00;;;2.03;68.95
11415;BME280;5763;42.714;23.244;2023-02-13T01:45:18;96316.34;;;2.87;68.95
11415;BME280;5763;42.714;23.244;2023-02-13T01:47:50;96263.97;;;2.50;68.57
11415;BME280;5763;42.714;23.244;2023-02-13T01:50:21;96238.94;;;2.31;68.66
11415;BME280;5763;42.714;23.244;2023-02-13T01:52:58;96159.50;;;1.90;68.23
11415;BME280;5763;42.714;23.244;2023-02-13T01:55:26;96322.59;;;2.91;67.85
11415;BME280;5763;42.714;23.244;2023-02-13T01:57:58;96258.81;;;2.42;67.78
11415;BME280;5763;42.714;23.244;2023-02-13T02:00:27;96306.50;;;2.53;67.07
11415;BME280;5763;42.714;23.244;2023-02-13T02:03:00;96367.13;;;2.97;67.23
11415;BME280;5763;42.714;23.244;2023-02-13T02:05:30;96268.22;;;2.29;66.88
11415;BME280;5763;42.714;23.244;2023-02-13T02:08:00;96293.81;;;2.57;67.03
11415;BME280;5763;42.714;23.244;2023-02-13T02:10:29;96265.53;;;2.74;67.74
11415;BME280;5763;42.714;23.244;2023-02-13T02:13:02;96131.25;;;1.84;67.89
11415;BME280;5763;42.714;23.244;2023-02-13T02:15:31;96257.69;;;2.65;68.33
11415;BME280;5763;42.714;23.244;2023-02-13T02:17:58;96270.63;;;2.56;68.57
11415;BME280;5763;42.714;23.244;2023-02-13T02:20:38;96359.41;;;2.99;68.90
11415;BME280;5763;42.714;23.244;2023-02-13T02:23:34;96178.69;;;1.85;68.87
11415;BME280;5763;42.714;23.244;2023-02-13T02:26:39;96283.50;;;2.85;68.84
11415;BME280;5763;42.714;23.244;2023-02-13T02:29:28;96139.72;;;1.83;69.20
11415;BME280;5763;42.714;23.244;2023-02-13T02:32:25;96319.34;;;3.05;68.79
11415;BME280;5763;42.714;23.244;2023-02-13T02:34:57;96285.75;;;2.83;68.49
11415;BME280;5763;42.714;23.244;2023-02-13T02:37:43;96204.97;;;2.07;68.67
11415;BME280;5763;42.714;23.244;2023-02-13T02:40:23;96320.69;;;2.92;68.99
11415;BME280;5763;42.714;23.244;2023-02-13T02:43:00;96331.66;;;3.02;68.93
11415;BME280;5763;42.714;23.244;2023-02-13T02:45:38;96122.44;;;1.65;68.96
11415;BME280;5763;42.714;23.244;2023-02-13T02:48:14;96258.97;;;2.30;68.70
11415;BME280;5763;42.714;23.244;2023-02-13T02:51:07;96343.28;;;3.03;68.85
11415;BME280;5763;42.714;23.244;2023-02-13T02:53:40;96255.88;;;2.50;68.79
11415;BME280;5763;42.714;23.244;2023-02-13T02:56:11;96162.66;;;1.92;68.41
11415;BME280;5763;42.714;23.244;2023-02-13T02:58:44;96272.56;;;2.78;68.17
11415;BME280;5763;42.714;23.244;2023-02-13T03:01:31;96345.13;;;3.21;68.18
11415;BME280;5763;42.714;23.244;2023-02-13T03:04:23;96258.50;;;2.47;67.84
11415;BME280;5763;42.714;23.244;2023-02-13T03:07:11;96359.34;;;3.18;68.36
11415;BME280;5763;42.714;23.244;2023-02-13T03:09:42;96250.47;;;2.50;68.65
11415;BME280;5763;42.714;23.244;2023-02-13T03:12:34;96334.06;;;3.07;68.43
11415;BME280;5763;42.714;23.244;2023-02-13T03:15:20;96335.75;;;3.15;67.89
11415;BME280;5763;42.714;23.244;2023-02-13T03:17:48;96285.75;;;2.83;67.88
11415;BME280;5763;42.714;23.244;2023-02-13T03:20:41;96352.75;;;3.16;67.58
11415;BME280;5763;42.714;23.244;2023-02-13T03:23:36;96341.69;;;3.02;68.13
11415;BME280;5763;42.714;23.244;2023-02-13T03:26:31;96319.22;;;2.75;68.43
11415;BME280;5763;42.714;23.244;2023-02-13T03:29:20;96321.03;;;2.68;68.72
11415;BME280;5763;42.714;23.244;2023-02-13T03:32:14;96351.38;;;2.80;69.03
11415;BME280;5763;42.714;23.244;2023-02-13T03:34:51;96350.94;;;2.78;69.24
11415;BME280;5763;42.714;23.244;2023-02-13T03:37:43;96152.06;;;1.42;69.23
11415;BME280;5763;42.714;23.244;2023-02-13T03:40:23;96351.09;;;2.66;69.90
11415;BME280;5763;42.714;23.244;2023-02-13T03:42:54;96357.31;;;2.67;69.72
11415;BME280;5763;42.714;23.244;2023-02-13T03:45:28;96131.47;;;1.34;69.14
11415;BME280;5763;42.714;23.244;2023-02-13T03:48:15;96304.03;;;2.26;69.45
11415;BME280;5763;42.714;23.244;2023-02-13T03:50:58;96170.88;;;1.39;69.39
11415;BME280;5763;42.714;23.244;2023-02-13T03:53:29;96348.28;;;2.59;69.65
11415;BME280;5763;42.714;23.244;2023-02-13T03:56:00;96208.66;;;1.80;69.27
11415;BME280;5763;42.714;23.244;2023-02-13T03:58:48;96226.47;;;2.04;68.92
11415;BME280;5763;42.714;23.244;2023-02-13T04:01:35;96273.81;;;2.39;68.57
11415;BME280;5763;42.714;23.244;2023-02-13T04:04:08;96345.19;;;2.80;68.26
11415;BME280;5763;42.714;23.244;2023-02-13T04:06:41;96383.16;;;2.87;68.01
11415;BME280;5763;42.714;23.244;2023-02-13T04:09:13;96320.13;;;2.60;68.16
11415;BME280;5763;42.714;23.244;2023-02-13T04:11:48;96268.56;;;2.27;68.06
11415;BME280;5763;42.714;23.244;2023-02-13T04:14:21;96182.84;;;1.41;67.66
11415;BME280;5763;42.714;23.244;2023-02-13T04:16:53;96174.63;;;1.53;67.78
11415;BME280;5763;42.714;23.244;2023-02-13T04:19:24;96181.72;;;1.61;67.15
11415;BME280;5763;42.714;23.244;2023-02-13T04:21:55;96281.56;;;2.41;66.83
11415;BME280;5763;42.714;23.244;2023-02-13T04:24:24;96160.84;;;1.58;67.01
11415;BME280;5763;42.714;23.244;2023-02-13T04:26:51;96414.31;;;2.81;67.08
11415;BME280;5763;42.714;23.244;2023-02-13T04:29:20;96277.13;;;2.10;67.95
11415;BME280;5763;42.714;23.244;2023-02-13T04:31:47;96283.25;;;1.88;68.42
11415;BME280;5763;42.714;23.244;2023-02-13T04:34:14;96295.25;;;2.10;68.65
11415;BME280;5763;42.714;23.244;2023-02-13T04:36:42;96345.19;;;2.38;69.11
11415;BME280;5763;42.714;23.244;2023-02-13T04:39:10;96285.34;;;2.17;68.30
11415;BME280;5763;42.714;23.244;2023-02-13T04:41:38;96307.00;;;2.40;67.58
11415;BME280;5763;42.714;23.244;2023-02-13T04:44:06;96397.47;;;2.68;67.65
11415;BME280;5763;42.714;23.244;2023-02-13T04:46:33;96188.66;;;1.62;67.36
11415;BME280;5763;42.714;23.244;2023-02-13T04:49:00;96283.78;;;2.16;67.47
11415;BME280;5763;42.714;23.244;2023-02-13T04:51:27;96355.66;;;2.62;67.58
11415;BME280;5763;42.714;23.244;2023-02-13T04:53:54;96252.53;;;1.96;67.61
11415;BME280;5763;42.714;23.244;2023-02-13T04:56:22;96179.78;;;1.43;67.53
11415;BME280;5763;42.714;23.244;2023-02-13T04:58:50;96168.06;;;1.35;67.36
11415;BME280;5763;42.714;23.244;2023-02-13T05:01:17;96219.88;;;1.44;67.53
11415;BME280;5763;42.714;23.244;2023-02-13T05:03:45;96367.72;;;2.68;67.44
11415;BME280;5763;42.714;23.244;2023-02-13T05:06:12;96366.81;;;2.61;67.66
11415;BME280;5763;42.714;23.244;2023-02-13T05:08:40;96205.41;;;1.52;67.38
11415;BME280;5763;42.714;23.244;2023-02-13T05:11:06;96232.81;;;1.73;67.08
11415;BME280;5763;42.714;23.244;2023-02-13T05:13:34;96219.09;;;1.63;67.26
11415;BME280;5763;42.714;23.244;2023-02-13T05:16:02;96372.13;;;2.76;67.57
11415;BME280;5763;42.714;23.244;2023-02-13T05:18:30;96363.63;;;2.74;67.12
11415;BME280;5763;42.714;23.244;2023-02-13T05:20:57;96318.25;;;2.42;67.34
11415;BME280;5763;42.714;23.244;2023-02-13T05:23:41;96190.94;;;1.60;67.25
11415;BME280;5763;42.714;23.244;2023-02-13T05:26:08;96234.44;;;1.78;67.09
11415;BME280;5763;42.714;23.244;2023-02-13T05:28:36;96318.53;;;2.37;66.99
11415;BME280;5763;42.714;23.244;2023-02-13T05:31:22;96172.28;;;1.52;67.11
11415;BME280;5763;42.714;23.244;2023-02-13T05:33:49;96189.53;;;1.66;66.77
11415;BME280;5763;42.714;23.244;2023-02-13T05:36:16;96235.28;;;2.01;66.85
11415;BME280;5763;42.714;23.244;2023-02-13T05:38:43;96398.28;;;2.91;67.01
11415;BME280;5763;42.714;23.244;2023-02-13T05:41:10;96373.00;;;2.80;67.09
11415;BME280;5763;42.714;23.244;2023-02-13T05:43:38;96356.28;;;2.75;66.87
11415;BME280;5763;42.714;23.244;2023-02-13T05:46:06;96319.38;;;2.41;66.46
11415;BME280;5763;42.714;23.244;2023-02-13T05:48:35;96396.63;;;3.06;66.40
11415;BME280;5763;42.714;23.244;2023-02-13T05:51:02;96390.00;;;3.03;66.37
11415;BME280;5763;42.714;23.244;2023-02-13T05:53:30;96413.72;;;2.91;66.35
11415;BME280;5763;42.714;23.244;2023-02-13T05:55:59;96390.50;;;3.09;66.49
11415;BME280;5763;42.714;23.244;2023-02-13T05:58:27;96389.94;;;3.00;66.05
11415;BME280;5763;42.714;23.244;2023-02-13T06:00:55;96201.13;;;1.89;65.89
11415;BME280;5763;42.714;23.244;2023-02-13T06:03:23;96316.44;;;2.49;66.13
11415;BME280;5763;42.714;23.244;2023-02-13T06:05:52;96234.38;;;1.74;66.21
11415;BME280;5763;42.714;23.244;2023-02-13T06:08:20;96293.31;;;2.29;66.66
11415;BME280;5763;42.714;23.244;2023-02-13T06:10:47;96389.28;;;2.84;66.44
11415;BME280;5763;42.714;23.244;2023-02-13T06:13:15;96431.53;;;3.14;66.39
11415;BME280;5763;42.714;23.244;2023-02-13T06:15:42;96364.13;;;2.61;66.46
11415;BME280;5763;42.714;23.244;2023-02-13T06:18:10;96419.06;;;3.29;65.86
11415;BME280;5763;42.714;23.244;2023-02-13T06:20:37;96345.47;;;2.97;65.79
11415;BME280;5763;42.714;23.244;2023-02-13T06:23:06;96368.16;;;2.89;65.92
11415;BME280;5763;42.714;23.244;2023-02-13T06:25:33;96340.91;;;2.79;66.09
11415;BME280;5763;42.714;23.244;2023-02-13T06:28:01;96219.16;;;2.04;65.75
11415;BME280;5763;42.714;23.244;2023-02-13T06:30:28;96355.00;;;2.69;66.25
11415;BME280;5763;42.714;23.244;2023-02-13T06:32:56;96412.97;;;3.13;66.44
11415;BME280;5763;42.714;23.244;2023-02-13T06:35:23;96439.53;;;3.07;67.07
11415;BME280;5763;42.714;23.244;2023-02-13T06:37:50;96355.13;;;2.53;66.37
11415;BME280;5763;42.714;23.244;2023-02-13T06:40:19;96419.50;;;3.12;65.82
11415;BME280;5763;42.714;23.244;2023-02-13T06:42:46;96429.63;;;3.15;66.19
11415;BME280;5763;42.714;23.244;2023-02-13T06:45:14;96451.31;;;3.18;66.45
11415;BME280;5763;42.714;23.244;2023-02-13T06:47:42;96264.59;;;2.21;66.05
11415;BME280;5763;42.714;23.244;2023-02-13T06:50:10;96402.19;;;2.94;66.53
11415;BME280;5763;42.714;23.244;2023-02-13T06:52:37;96362.03;;;2.73;67.59
11415;BME280;5763;42.714;23.244;2023-02-13T06:55:05;96388.72;;;2.75;67.81
11415;BME280;5763;42.714;23.244;2023-02-13T06:57:33;96398.16;;;3.07;67.42
11415;BME280;5763;42.714;23.244;2023-02-13T07:00:01;96410.28;;;3.35;66.89
11415;BME280;5763;42.714;23.244;2023-02-13T07:02:30;96445.78;;;3.79;66.12
11415;BME280;5763;42.714;23.244;2023-02-13T07:04:57;96223.88;;;2.52;65.68
11415;BME280;5763;42.714;23.244;2023-02-13T07:07:25;96367.00;;;3.35;66.74
11415;BME280;5763;42.714;23.244;2023-02-13T07:09:52;96423.75;;;3.80;66.28
11415;BME280;5763;42.714;23.244;2023-02-13T07:12:19;96274.28;;;3.12;65.48
11415;BME280;5763;42.714;23.244;2023-02-13T07:14:47;96392.19;;;3.65;65.77
11415;BME280;5763;42.714;23.244;2023-02-13T07:17:14;96321.94;;;3.20;65.77
11415;BME280;5763;42.714;23.244;2023-02-13T07:19:41;96420.91;;;3.96;65.89
11415;BME280;5763;42.714;23.244;2023-02-13T07:22:08;96272.50;;;2.75;65.91
11415;BME280;5763;42.714;23.244;2023-02-13T07:24:36;96331.00;;;3.31;65.31
11415;BME280;5763;42.714;23.244;2023-02-13T07:27:03;96252.72;;;2.93;65.25
11415;BME280;5763;42.714;23.244;2023-02-13T07:29:30;96367.31;;;3.56;65.45
11415;BME280;5763;42.714;23.244;2023-02-13T07:31:59;96321.81;;;2.91;65.49
11415;BME280;5763;42.714;23.244;2023-02-13T07:34:26;96324.34;;;3.25;65.83
11415;BME280;5763;42.714;23.244;2023-02-13T07:36:53;96303.06;;;3.01;65.61
11415;BME280;5763;42.714;23.244;2023-02-13T07:39:20;96381.38;;;3.65;65.87
11415;BME280;5763;42.714;23.244;2023-02-13T07:41:48;96258.13;;;2.71;65.42
11415;BME280;5763;42.714;23.244;2023-02-13T07:44:15;96380.09;;;3.33;65.38
11415;BME280;5763;42.714;23.244;2023-02-13T07:46:42;96355.13;;;3.43;65.39
11415;BME280;5763;42.714;23.244;2023-02-13T07:49:11;96311.88;;;3.21;65.30
11415;BME280;5763;42.714;23.244;2023-02-13T07:51:38;96287.66;;;2.79;64.90
11415;BME280;5763;42.714;23.244;2023-02-13T07:54:05;96329.84;;;3.32;65.23
11415;BME280;5763;42.714;23.244;2023-02-13T07:56:35;96303.31;;;3.15;65.16
11415;BME280;5763;42.714;23.244;2023-02-13T07:59:02;96433.16;;;4.12;64.71
11415;BME280;5763;42.714;23.244;2023-02-13T08:01:29;96419.84;;;4.04;65.19
11415;BME280;5763;42.714;23.244;2023-02-13T08:03:56;96376.91;;;3.76;64.99
11415;BME280;5763;42.714;23.244;2023-02-13T08:06:24;96251.75;;;3.05;64.66
11415;BME280;5763;42.714;23.244;2023-02-13T08:08:52;96387.09;;;3.86;65.60
11415;BME280;5763;42.714;23.244;2023-02-13T08:11:39;96337.69;;;3.41;66.11
11415;BME280;5763;42.714;23.244;2023-02-13T08:14:20;96220.91;;;2.83;66.01
11415;BME280;5763;42.714;23.244;2023-02-13T08:16:47;96288.63;;;3.16;66.01
11415;BME280;5763;42.714;23.244;2023-02-13T08:19:15;96258.91;;;2.94;66.08
11415;BME280;5763;42.714;23.244;2023-02-13T08:21:43;96373.78;;;3.74;66.13
11415;BME280;5763;42.714;23.244;2023-02-13T08:24:11;96371.50;;;3.76;65.54
11415;BME280;5763;42.714;23.244;2023-02-13T08:26:38;96225.84;;;2.78;66.00
11415;BME280;5763;42.714;23.244;2023-02-13T08:29:05;96369.28;;;3.59;66.42
11415;BME280;5763;42.714;23.244;2023-02-13T08:31:33;96376.03;;;3.69;65.72
11415;BME280;5763;42.714;23.244;2023-02-13T08:34:00;96349.31;;;3.67;65.90
11415;BME280;5763;42.714;23.244;2023-02-13T08:36:27;96414.13;;;3.83;65.84
11415;BME280;5763;42.714;23.244;2023-02-13T08:38:55;96416.69;;;3.98;66.12
11415;BME280;5763;42.714;23.244;2023-02-13T08:41:22;96316.06;;;3.41;65.51
11415;BME280;5763;42.714;23.244;2023-02-13T08:43:49;96222.19;;;3.15;64.55
11415;BME280;5763;42.714;23.244;2023-02-13T08:46:16;96314.78;;;3.87;64.15
11415;BME280;5763;42.714;23.244;2023-02-13T08:48:43;96315.91;;;3.56;64.01
11415;BME280;5763;42.714;23.244;2023-02-13T08:51:12;96409.41;;;4.32;64.16
11415;BME280;5763;42.714;23.244;2023-02-13T08:53:40;96389.72;;;4.09;64.26
11415;BME280;5763;42.714;23.244;2023-02-13T08:56:09;96319.94;;;3.69;64.44
11415;BME280;5763;42.714;23.244;2023-02-13T08:58:37;96351.97;;;3.90;64.64
11415;BME280;5763;42.714;23.244;2023-02-13T09:01:05;96435.75;;;4.35;64.94
11415;BME280;5763;42.714;23.244;2023-02-13T09:03:32;96397.50;;;3.84;65.45
11415;BME280;5763;42.714;23.244;2023-02-13T09:06:00;96393.88;;;3.99;65.96
11415;BME280;5763;42.714;23.244;2023-02-13T09:08:27;96464.38;;;4.32;66.34
11415;BME280;5763;42.714;23.244;2023-02-13T09:10:56;96292.94;;;3.47;65.96
11415;BME280;5763;42.714;23.244;2023-02-13T09:13:25;96257.91;;;3.28;66.06
11415;BME280;5763;42.714;23.244;2023-02-13T09:15:56;96384.06;;;4.17;66.33
11415;BME280;5763;42.714;23.244;2023-02-13T09:18:22;96320.41;;;4.04;64.92
11415;BME280;5763;42.714;23.244;2023-02-13T09:20:49;96326.66;;;4.08;64.32
11415;BME280;5763;42.714;23.244;2023-02-13T09:23:22;96356.78;;;4.33;63.59
11415;BME280;5763;42.714;23.244;2023-02-13T09:25:49;96345.75;;;4.19;63.93
11415;BME280;5763;42.714;23.244;2023-02-13T09:28:16;96275.47;;;3.70;63.65
11415;BME280;5763;42.714;23.244;2023-02-13T09:30:45;96424.81;;;4.87;64.31
11415;BME280;5763;42.714;23.244;2023-02-13T09:33:13;96308.94;;;4.14;62.60
11415;BME280;5763;42.714;23.244;2023-02-13T09:35:40;96251.28;;;3.51;62.25
11415;BME280;5763;42.714;23.244;2023-02-13T09:38:10;96268.66;;;3.80;63.31
11415;BME280;5763;42.714;23.244;2023-02-13T09:40:43;96352.88;;;4.30;63.29
11415;BME280;5763;42.714;23.244;2023-02-13T09:43:15;96358.31;;;5.03;62.07
11415;BME280;5763;42.714;23.244;2023-02-13T09:45:46;96237.22;;;4.38;60.37
11415;BME280;5763;42.714;23.244;2023-02-13T09:48:21;96392.16;;;5.56;59.98
11415;BME280;5763;42.714;23.244;2023-02-13T09:50:50;96361.44;;;5.49;60.09
11415;BME280;5763;42.714;23.244;2023-02-13T09:53:21;96337.63;;;5.32;59.15
11415;BME280;5763;42.714;23.244;2023-02-13T09:55:56;96231.34;;;4.72;59.04
11415;BME280;5763;42.714;23.244;2023-02-13T09:58:35;96336.69;;;5.57;58.20
11415;BME280;5763;42.714;23.244;2023-02-13T10:01:23;96233.31;;;5.29;57.94
11415;BME280;5763;42.714;23.244;2023-02-13T10:06:44;96296.53;;;7.50;53.58
11415;BME280;5763;42.714;23.244;2023-02-13T10:09:22;96292.59;;;7.75;52.63
11415;BME280;5763;42.714;23.244;2023-02-13T10:12:03;96396.88;;;8.35;50.52
11415;BME280;5763;42.714;23.244;2023-02-13T10:14:38;96390.59;;;8.52;51.17
11415;BME280;5763;42.714;23.244;2023-02-13T10:17:13;96199.69;;;7.35;50.59
11415;BME280;5763;42.714;23.244;2023-02-13T10:19:45;96331.81;;;8.16;50.05
11415;BME280;5763;42.714;23.244;2023-02-13T10:22:16;96409.69;;;8.52;50.06
11415;BME280;5763;42.714;23.244;2023-02-13T10:24:47;96351.56;;;8.62;48.85
11415;BME280;5763;42.714;23.244;2023-02-13T10:27:19;96198.59;;;8.18;47.78
11415;BME280;5763;42.714;23.244;2023-02-13T10:29:53;96209.06;;;8.37;46.68
11415;BME280;5763;42.714;23.244;2023-02-13T10:32:48;96283.19;;;9.41;46.36
11415;BME280;5763;42.714;23.244;2023-02-13T10:35:36;96342.88;;;9.90;46.35
11415;BME280;5763;42.714;23.244;2023-02-13T10:38:13;96387.56;;;9.73;45.53
11415;BME280;5763;42.714;23.244;2023-02-13T10:40:49;96261.94;;;9.59;45.53
11415;BME280;5763;42.714;23.244;2023-02-13T10:43:24;96325.38;;;10.58;44.37
11415;BME280;5763;42.714;23.244;2023-02-13T10:45:58;96315.69;;;10.50;43.19
11415;BME280;5763;42.714;23.244;2023-02-13T10:48:53;96278.28;;;10.40;43.23
11415;BME280;5763;42.714;23.244;2023-02-13T10:51:27;96161.38;;;9.81;43.01
11415;BME280;5763;42.714;23.244;2023-02-13T10:54:17;96229.66;;;10.51;41.90
11415;BME280;5763;42.714;23.244;2023-02-13T10:56:52;96217.78;;;10.61;41.87
11415;BME280;5763;42.714;23.244;2023-02-13T10:59:33;96137.13;;;10.69;40.78
11415;BME280;5763;42.714;23.244;2023-02-13T11:02:18;96260.47;;;11.61;40.70
11415;BME280;5763;42.714;23.244;2023-02-13T11:04:49;96130.94;;;11.11;40.08
11415;BME280;5763;42.714;23.244;2023-02-13T11:07:20;96272.00;;;11.95;40.51
11415;BME280;5763;42.714;23.244;2023-02-13T11:09:50;96269.91;;;12.61;39.09
11415;BME280;5763;42.714;23.244;2023-02-13T11:12:27;96284.75;;;13.03;37.26
11415;BME280;5763;42.714;23.244;2023-02-13T11:14:56;96278.59;;;13.63;37.20
11415;BME280;5763;42.714;23.244;2023-02-13T11:17:24;96282.72;;;13.71;35.68
11415;BME280;5763;42.714;23.244;2023-02-13T11:19:56;96114.44;;;12.99;34.84
11415;BME280;5763;42.714;23.244;2023-02-13T11:22:29;96155.38;;;13.26;34.39
11415;BME280;5763;42.714;23.244;2023-02-13T11:25:00;96116.88;;;12.94;33.60
11415;BME280;5763;42.714;23.244;2023-02-13T11:27:31;96195.16;;;13.37;34.54
11415;BME280;5763;42.714;23.244;2023-02-13T11:30:00;96093.09;;;12.71;34.14
11415;BME280;5763;42.714;23.244;2023-02-13T11:32:30;96164.22;;;13.33;34.58
11415;BME280;5763;42.714;23.244;2023-02-13T11:35:20;96177.09;;;13.36;34.12
11415;BME280;5763;42.714;23.244;2023-02-13T11:38:11;96213.72;;;13.49;33.69
11415;BME280;5763;42.714;23.244;2023-02-13T11:40:40;96164.66;;;13.00;33.80
11415;BME280;5763;42.714;23.244;2023-02-13T11:43:17;96097.22;;;12.95;34.05
11415;BME280;5763;42.714;23.244;2023-02-13T11:45:45;96162.75;;;13.73;33.83
11415;BME280;5763;42.714;23.244;2023-02-13T11:48:20;96197.38;;;14.31;32.39
11415;BME280;5763;42.714;23.244;2023-02-13T11:50:54;96149.31;;;13.91;31.16
11415;BME280;5763;42.714;23.244;2023-02-13T11:53:23;96037.13;;;13.42;32.01
11415;BME280;5763;42.714;23.244;2023-02-13T11:56:05;96204.91;;;14.56;31.53
11415;BME280;5763;42.714;23.244;2023-02-13T11:58:33;96139.44;;;14.47;31.28
11415;BME280;5763;42.714;23.244;2023-02-13T12:01:25;96192.91;;;15.00;30.92
11415;BME280;5763;42.714;23.244;2023-02-13T12:04:01;96125.75;;;14.81;30.56
11415;BME280;5763;42.714;23.244;2023-02-13T12:06:31;96148.88;;;15.09;30.05
11415;BME280;5763;42.714;23.244;2023-02-13T12:09:08;96200.72;;;15.01;29.18
11415;BME280;5763;42.714;23.244;2023-02-13T12:11:41;96178.66;;;15.01;29.73
11415;BME280;5763;42.714;23.244;2023-02-13T12:14:13;96163.25;;;14.91;29.39
11415;BME280;5763;42.714;23.244;2023-02-13T12:16:45;96017.03;;;13.57;29.18
11415;BME280;5763;42.714;23.244;2023-02-13T12:19:19;96190.25;;;14.71;30.32
11415;BME280;5763;42.714;23.244;2023-02-13T12:22:00;96075.13;;;14.13;29.77
11415;BME280;5763;42.714;23.244;2023-02-13T12:24:53;96177.91;;;15.13;29.53
11415;BME280;5763;42.714;23.244;2023-02-13T12:27:30;96165.19;;;15.28;29.10
11415;BME280;5763;42.714;23.244;2023-02-13T12:30:32;96130.28;;;14.75;29.21
11415;BME280;5763;42.714;23.244;2023-02-13T12:33:11;96059.75;;;14.40;29.91
11415;BME280;5763;42.714;23.244;2023-02-13T12:35:47;96083.22;;;14.82;28.97
11415;BME280;5763;42.714;23.244;2023-02-13T12:38:38;96135.97;;;15.31;28.78
11415;BME280;5763;42.714;23.244;2023-02-13T12:41:17;96048.84;;;15.21;28.47
11415;BME280;5763;42.714;23.244;2023-02-13T12:44:07;96147.50;;;15.85;27.96
11415;BME280;5763;42.714;23.244;2023-02-13T12:46:46;96020.16;;;14.84;27.91
11415;BME280;5763;42.714;23.244;2023-02-13T12:49:33;96098.78;;;15.69;27.62
11415;BME280;5763;42.714;23.244;2023-02-13T12:52:17;96083.56;;;15.86;27.55
11415;BME280;5763;42.714;23.244;2023-02-13T12:55:00;96140.50;;;16.66;27.36
11415;BME280;5763;42.714;23.244;2023-02-13T12:57:44;96130.09;;;16.70;27.10
11415;BME280;5763;42.714;23.244;2023-02-13T13:00:24;96092.88;;;16.32;26.95
11415;BME280;5763;42.714;23.244;2023-02-13T13:03:16;96092.84;;;16.53;26.43
11415;BME280;5763;42.714;23.244;2023-02-13T13:05:58;96013.88;;;16.04;26.46
11415;BME280;5763;42.714;23.244;2023-02-13T13:08:47;96114.31;;;16.49;26.70
11415;BME280;5763;42.714;23.244;2023-02-13T13:11:32;96073.00;;;15.72;27.04
11415;BME280;5763;42.714;23.244;2023-02-13T13:14:07;96124.34;;;16.34;27.22
11415;BME280;5763;42.714;23.244;2023-02-13T13:16:45;96081.88;;;15.67;27.58
11415;BME280;5763;42.714;23.244;2023-02-13T13:19:23;96115.00;;;15.67;28.08
11415;BME280;5763;42.714;23.244;2023-02-13T13:21:57;95948.78;;;14.65;28.22
11415;BME280;5763;42.714;23.244;2023-02-13T13:24:40;96140.88;;;15.48;28.40
11415;BME280;5763;42.714;23.244;2023-02-13T13:27:17;96097.25;;;15.56;28.28
11415;BME280;5763;42.714;23.244;2023-02-13T13:29:51;96105.66;;;15.52;28.72
11415;BME280;5763;42.714;23.244;2023-02-13T13:32:20;96042.13;;;15.09;28.93
11415;BME280;5763;42.714;23.244;2023-02-13T13:34:48;96056.41;;;15.29;28.34
11415;BME280;5763;42.714;23.244;2023-02-13T13:37:24;96096.03;;;15.23;29.03
11415;BME280;5763;42.714;23.244;2023-02-13T13:39:57;95991.13;;;14.33;29.39